Terminal Aerodrome Forecast
Issued by NWS

Home | Current Version | Previous Version | Text Only | Print | Product List | Glossary On
Versions: 1 2 3 4 5 6 7 8 9 10 11 12 13 14 15 16 17 18
000
FTUS43 KGRB 260500
TAFATW
TAF
KATW 260520Z 2606/2706 26012G16KT P6SM BKN030
     FM260800 26010KT P6SM BKN030
     FM261100 29009KT P6SM BKN025
     FM261500 32013G18KT P6SM BKN030
     FM270200 34011KT P6SM SCT030=

USA.gov is the U.S. government's official web portal to all federal, state and local government web resources and services.